sensor_id;sensor_type;location;lat;lon;timestamp;P1;durP1;ratioP1;P2;durP2;ratioP2
35558;SDS011;21661;50.794;-1.066;2023-07-20T00:01:02;6.32;;;2.97;;
35558;SDS011;21661;50.794;-1.066;2023-07-20T00:03:27;6.07;;;3.03;;
35558;SDS011;21661;50.794;-1.066;2023-07-20T00:05:53;4.65;;;2.58;;
35558;SDS011;21661;50.794;-1.066;2023-07-20T00:08:18;7.95;;;3.00;;
35558;SDS011;21661;50.794;-1.066;2023-07-20T00:10:44;4.85;;;2.88;;
35558;SDS011;21661;50.794;-1.066;2023-07-20T00:13:10;8.20;;;3.25;;
35558;SDS011;21661;50.794;-1.066;2023-07-20T00:15:37;4.25;;;2.95;;
35558;SDS011;21661;50.794;-1.066;2023-07-20T00:18:03;5.97;;;2.90;;
35558;SDS011;21661;50.794;-1.066;2023-07-20T00:20:29;8.10;;;3.10;;
35558;SDS011;21661;50.794;-1.066;2023-07-20T00:22:55;9.00;;;3.17;;
35558;SDS011;21661;50.794;-1.066;2023-07-20T00:25:22;5.70;;;2.85;;
35558;SDS011;21661;50.794;-1.066;2023-07-20T00:27:48;7.90;;;3.22;;
35558;SDS011;21661;50.794;-1.066;2023-07-20T00:30:14;7.72;;;3.00;;
35558;SDS011;21661;50.794;-1.066;2023-07-20T00:32:41;4.63;;;2.80;;
35558;SDS011;21661;50.794;-1.066;2023-07-20T00:35:08;5.65;;;3.08;;
35558;SDS011;21661;50.794;-1.066;2023-07-20T00:37:33;6.72;;;3.38;;
35558;SDS011;21661;50.794;-1.066;2023-07-20T00:39:59;7.20;;;3.40;;
35558;SDS011;21661;50.794;-1.066;2023-07-20T00:42:25;6.85;;;3.30;;
35558;SDS011;21661;50.794;-1.066;2023-07-20T00:44:50;4.85;;;3.00;;
35558;SDS011;21661;50.794;-1.066;2023-07-20T00:47:16;6.35;;;3.03;;
35558;SDS011;21661;50.794;-1.066;2023-07-20T00:49:41;5.63;;;3.35;;
35558;SDS011;21661;50.794;-1.066;2023-07-20T00:52:08;4.78;;;3.17;;
35558;SDS011;21661;50.794;-1.066;2023-07-20T00:54:38;5.90;;;3.20;;
35558;SDS011;21661;50.794;-1.066;2023-07-20T00:57:04;9.40;;;3.35;;
35558;SDS011;21661;50.794;-1.066;2023-07-20T00:59:32;5.47;;;3.00;;
35558;SDS011;21661;50.794;-1.066;2023-07-20T01:01:58;7.25;;;3.17;;
35558;SDS011;21661;50.794;-1.066;2023-07-20T01:04:23;4.10;;;2.85;;
35558;SDS011;21661;50.794;-1.066;2023-07-20T01:06:58;4.85;;;3.05;;
35558;SDS011;21661;50.794;-1.066;2023-07-20T01:09:48;5.05;;;2.90;;
35558;SDS011;21661;50.794;-1.066;2023-07-20T01:12:52;9.50;;;3.58;;
35558;SDS011;21661;50.794;-1.066;2023-07-20T01:15:17;6.80;;;3.13;;
35558;SDS011;21661;50.794;-1.066;2023-07-20T01:17:43;8.48;;;3.58;;
35558;SDS011;21661;50.794;-1.066;2023-07-20T01:20:10;7.82;;;3.63;;
35558;SDS011;21661;50.794;-1.066;2023-07-20T01:28:07;5.78;;;3.33;;
35558;SDS011;21661;50.794;-1.066;2023-07-20T01:33:20;6.65;;;3.28;;
35558;SDS011;21661;50.794;-1.066;2023-07-20T01:35:52;6.32;;;3.33;;
35558;SDS011;21661;50.794;-1.066;2023-07-20T01:38:20;5.80;;;3.78;;
35558;SDS011;21661;50.794;-1.066;2023-07-20T01:40:47;4.90;;;3.75;;
35558;SDS011;21661;50.794;-1.066;2023-07-20T01:43:14;5.57;;;3.17;;
35558;SDS011;21661;50.794;-1.066;2023-07-20T01:45:40;5.93;;;3.42;;
35558;SDS011;21661;50.794;-1.066;2023-07-20T01:48:05;6.13;;;3.50;;
35558;SDS011;21661;50.794;-1.066;2023-07-20T01:50:31;5.03;;;3.25;;
35558;SDS011;21661;50.794;-1.066;2023-07-20T01:52:57;8.07;;;3.58;;
35558;SDS011;21661;50.794;-1.066;2023-07-20T01:55:23;6.43;;;3.40;;
35558;SDS011;21661;50.794;-1.066;2023-07-20T01:57:48;7.35;;;4.07;;
35558;SDS011;21661;50.794;-1.066;2023-07-20T02:00:14;6.05;;;3.65;;
35558;SDS011;21661;50.794;-1.066;2023-07-20T02:02:41;9.50;;;3.78;;
35558;SDS011;21661;50.794;-1.066;2023-07-20T02:05:07;4.43;;;3.33;;
35558;SDS011;21661;50.794;-1.066;2023-07-20T02:07:33;8.68;;;3.97;;
35558;SDS011;21661;50.794;-1.066;2023-07-20T02:09:58;6.07;;;3.55;;
35558;SDS011;21661;50.794;-1.066;2023-07-20T02:12:24;7.20;;;3.42;;
35558;SDS011;21661;50.794;-1.066;2023-07-20T02:14:50;7.65;;;3.97;;
35558;SDS011;21661;50.794;-1.066;2023-07-20T02:17:16;7.45;;;3.50;;
35558;SDS011;21661;50.794;-1.066;2023-07-20T02:19:42;8.55;;;3.47;;
35558;SDS011;21661;50.794;-1.066;2023-07-20T02:22:07;5.97;;;3.53;;
35558;SDS011;21661;50.794;-1.066;2023-07-20T02:24:33;8.50;;;3.88;;
35558;SDS011;21661;50.794;-1.066;2023-07-20T02:26:59;6.57;;;4.00;;
35558;SDS011;21661;50.794;-1.066;2023-07-20T02:29:24;6.50;;;3.40;;
35558;SDS011;21661;50.794;-1.066;2023-07-20T02:31:50;4.65;;;3.45;;
35558;SDS011;21661;50.794;-1.066;2023-07-20T02:34:16;6.55;;;3.35;;
35558;SDS011;21661;50.794;-1.066;2023-07-20T02:36:41;7.97;;;3.05;;
35558;SDS011;21661;50.794;-1.066;2023-07-20T02:39:07;5.53;;;2.60;;
35558;SDS011;21661;50.794;-1.066;2023-07-20T02:41:33;5.93;;;3.15;;
35558;SDS011;21661;50.794;-1.066;2023-07-20T02:43:59;7.20;;;3.33;;
35558;SDS011;21661;50.794;-1.066;2023-07-20T02:46:28;4.45;;;2.90;;
35558;SDS011;21661;50.794;-1.066;2023-07-20T02:48:55;4.45;;;3.10;;
35558;SDS011;21661;50.794;-1.066;2023-07-20T02:51:21;4.90;;;3.15;;
35558;SDS011;21661;50.794;-1.066;2023-07-20T02:53:46;8.88;;;3.30;;
35558;SDS011;21661;50.794;-1.066;2023-07-20T02:56:12;6.28;;;3.40;;
35558;SDS011;21661;50.794;-1.066;2023-07-20T02:58:39;4.40;;;2.95;;
35558;SDS011;21661;50.794;-1.066;2023-07-20T03:01:08;5.75;;;3.03;;
35558;SDS011;21661;50.794;-1.066;2023-07-20T03:03:34;7.78;;;2.85;;
35558;SDS011;21661;50.794;-1.066;2023-07-20T03:06:04;4.55;;;3.00;;
35558;SDS011;21661;50.794;-1.066;2023-07-20T03:08:30;5.88;;;3.33;;
35558;SDS011;21661;50.794;-1.066;2023-07-20T03:10:55;6.22;;;3.15;;
35558;SDS011;21661;50.794;-1.066;2023-07-20T03:13:21;6.75;;;2.92;;
35558;SDS011;21661;50.794;-1.066;2023-07-20T03:15:46;6.70;;;3.53;;
35558;SDS011;21661;50.794;-1.066;2023-07-20T03:18:12;4.45;;;3.13;;
35558;SDS011;21661;50.794;-1.066;2023-07-20T03:20:38;6.35;;;3.45;;
35558;SDS011;21661;50.794;-1.066;2023-07-20T03:23:03;5.45;;;3.00;;
35558;SDS011;21661;50.794;-1.066;2023-07-20T03:25:29;5.57;;;2.83;;
35558;SDS011;21661;50.794;-1.066;2023-07-20T03:27:55;4.78;;;3.42;;
35558;SDS011;21661;50.794;-1.066;2023-07-20T03:30:20;5.57;;;3.08;;
35558;SDS011;21661;50.794;-1.066;2023-07-20T03:32:46;6.00;;;2.90;;
35558;SDS011;21661;50.794;-1.066;2023-07-20T03:35:12;4.65;;;3.35;;
35558;SDS011;21661;50.794;-1.066;2023-07-20T03:37:37;5.93;;;3.40;;
35558;SDS011;21661;50.794;-1.066;2023-07-20T03:40:03;4.13;;;3.00;;
35558;SDS011;21661;50.794;-1.066;2023-07-20T03:42:30;5.18;;;3.20;;
35558;SDS011;21661;50.794;-1.066;2023-07-20T03:44:55;5.63;;;3.10;;
35558;SDS011;21661;50.794;-1.066;2023-07-20T03:47:21;7.88;;;2.80;;
35558;SDS011;21661;50.794;-1.066;2023-07-20T03:49:47;5.10;;;3.17;;
35558;SDS011;21661;50.794;-1.066;2023-07-20T03:52:12;5.90;;;3.05;;
35558;SDS011;21661;50.794;-1.066;2023-07-20T03:54:38;5.95;;;2.75;;
35558;SDS011;21661;50.794;-1.066;2023-07-20T03:57:04;5.43;;;2.90;;
35558;SDS011;21661;50.794;-1.066;2023-07-20T03:59:29;4.60;;;2.45;;
35558;SDS011;21661;50.794;-1.066;2023-07-20T04:01:55;3.55;;;2.58;;
35558;SDS011;21661;50.794;-1.066;2023-07-20T04:04:20;7.45;;;2.97;;
35558;SDS011;21661;50.794;-1.066;2023-07-20T04:06:46;4.57;;;2.88;;
35558;SDS011;21661;50.794;-1.066;2023-07-20T04:09:12;4.82;;;2.90;;
35558;SDS011;21661;50.794;-1.066;2023-07-20T04:11:38;9.65;;;3.28;;
35558;SDS011;21661;50.794;-1.066;2023-07-20T04:14:04;4.00;;;2.70;;
35558;SDS011;21661;50.794;-1.066;2023-07-20T04:16:29;6.25;;;2.90;;
35558;SDS011;21661;50.794;-1.066;2023-07-20T04:18:55;4.78;;;3.25;;
35558;SDS011;21661;50.794;-1.066;2023-07-20T04:21:21;5.57;;;2.83;;
35558;SDS011;21661;50.794;-1.066;2023-07-20T04:23:47;6.80;;;2.65;;
35558;SDS011;21661;50.794;-1.066;2023-07-20T04:26:13;5.00;;;2.72;;
35558;SDS011;21661;50.794;-1.066;2023-07-20T04:28:40;5.88;;;2.85;;
35558;SDS011;21661;50.794;-1.066;2023-07-20T04:31:13;4.95;;;2.88;;
35558;SDS011;21661;50.794;-1.066;2023-07-20T04:33:39;6.25;;;3.15;;
35558;SDS011;21661;50.794;-1.066;2023-07-20T04:36:05;5.53;;;2.83;;
35558;SDS011;21661;50.794;-1.066;2023-07-20T04:38:32;6.80;;;2.90;;
35558;SDS011;21661;50.794;-1.066;2023-07-20T04:40:58;4.82;;;2.85;;
35558;SDS011;21661;50.794;-1.066;2023-07-20T04:43:23;5.40;;;2.95;;
35558;SDS011;21661;50.794;-1.066;2023-07-20T04:45:49;4.80;;;2.83;;
35558;SDS011;21661;50.794;-1.066;2023-07-20T04:48:15;4.78;;;2.65;;
35558;SDS011;21661;50.794;-1.066;2023-07-20T04:50:43;7.28;;;3.05;;
35558;SDS011;21661;50.794;-1.066;2023-07-20T04:53:10;4.95;;;2.40;;
35558;SDS011;21661;50.794;-1.066;2023-07-20T04:55:36;4.70;;;3.10;;
35558;SDS011;21661;50.794;-1.066;2023-07-20T04:58:03;5.45;;;2.88;;
35558;SDS011;21661;50.794;-1.066;2023-07-20T05:00:29;5.63;;;2.80;;
35558;SDS011;21661;50.794;-1.066;2023-07-20T05:02:55;6.10;;;2.80;;
35558;SDS011;21661;50.794;-1.066;2023-07-20T05:05:21;6.30;;;2.60;;
35558;SDS011;21661;50.794;-1.066;2023-07-20T05:07:47;4.97;;;2.85;;
35558;SDS011;21661;50.794;-1.066;2023-07-20T05:10:13;4.45;;;2.90;;
35558;SDS011;21661;50.794;-1.066;2023-07-20T05:12:39;4.90;;;3.33;;
35558;SDS011;21661;50.794;-1.066;2023-07-20T05:15:04;5.28;;;3.33;;
35558;SDS011;21661;50.794;-1.066;2023-07-20T05:17:30;4.90;;;3.00;;
35558;SDS011;21661;50.794;-1.066;2023-07-20T05:19:56;6.97;;;2.88;;
35558;SDS011;21661;50.794;-1.066;2023-07-20T05:22:21;6.15;;;2.80;;
35558;SDS011;21661;50.794;-1.066;2023-07-20T05:24:48;3.58;;;2.33;;
35558;SDS011;21661;50.794;-1.066;2023-07-20T05:27:13;4.55;;;2.70;;
35558;SDS011;21661;50.794;-1.066;2023-07-20T05:29:43;5.80;;;2.40;;
35558;SDS011;21661;50.794;-1.066;2023-07-20T05:32:15;3.72;;;2.47;;
35558;SDS011;21661;50.794;-1.066;2023-07-20T05:34:40;4.82;;;2.40;;
35558;SDS011;21661;50.794;-1.066;2023-07-20T05:37:06;4.80;;;2.50;;
35558;SDS011;21661;50.794;-1.066;2023-07-20T05:39:32;6.80;;;2.85;;
35558;SDS011;21661;50.794;-1.066;2023-07-20T05:41:58;7.22;;;2.55;;
35558;SDS011;21661;50.794;-1.066;2023-07-20T05:44:23;3.65;;;2.63;;
35558;SDS011;21661;50.794;-1.066;2023-07-20T05:46:49;6.20;;;2.47;;
35558;SDS011;21661;50.794;-1.066;2023-07-20T05:49:15;4.68;;;2.45;;
35558;SDS011;21661;50.794;-1.066;2023-07-20T05:51:40;4.60;;;2.63;;
35558;SDS011;21661;50.794;-1.066;2023-07-20T05:54:06;5.50;;;2.58;;
35558;SDS011;21661;50.794;-1.066;2023-07-20T05:56:31;4.78;;;2.35;;
35558;SDS011;21661;50.794;-1.066;2023-07-20T05:58:57;3.60;;;2.70;;
35558;SDS011;21661;50.794;-1.066;2023-07-20T06:01:23;6.82;;;3.17;;
35558;SDS011;21661;50.794;-1.066;2023-07-20T06:03:51;5.97;;;3.00;;
35558;SDS011;21661;50.794;-1.066;2023-07-20T06:06:17;6.25;;;3.05;;
35558;SDS011;21661;50.794;-1.066;2023-07-20T06:08:43;4.60;;;2.42;;
35558;SDS011;21661;50.794;-1.066;2023-07-20T06:11:09;3.90;;;2.38;;
35558;SDS011;21661;50.794;-1.066;2023-07-20T06:13:35;6.97;;;2.90;;
35558;SDS011;21661;50.794;-1.066;2023-07-20T06:16:00;5.65;;;2.83;;
35558;SDS011;21661;50.794;-1.066;2023-07-20T06:18:26;8.93;;;2.97;;
35558;SDS011;21661;50.794;-1.066;2023-07-20T06:20:52;4.93;;;2.80;;
35558;SDS011;21661;50.794;-1.066;2023-07-20T06:23:21;5.50;;;2.95;;
35558;SDS011;21661;50.794;-1.066;2023-07-20T06:25:46;7.30;;;3.10;;
35558;SDS011;21661;50.794;-1.066;2023-07-20T06:28:13;3.22;;;2.45;;
35558;SDS011;21661;50.794;-1.066;2023-07-20T06:30:38;4.05;;;2.67;;
35558;SDS011;21661;50.794;-1.066;2023-07-20T06:33:05;5.68;;;3.00;;
35558;SDS011;21661;50.794;-1.066;2023-07-20T06:35:31;4.03;;;2.70;;
35558;SDS011;21661;50.794;-1.066;2023-07-20T06:37:57;5.95;;;2.47;;
35558;SDS011;21661;50.794;-1.066;2023-07-20T06:40:25;6.47;;;3.15;;
35558;SDS011;21661;50.794;-1.066;2023-07-20T06:42:51;4.00;;;2.80;;
35558;SDS011;21661;50.794;-1.066;2023-07-20T06:45:17;4.75;;;2.58;;
35558;SDS011;21661;50.794;-1.066;2023-07-20T06:47:42;4.90;;;2.75;;
35558;SDS011;21661;50.794;-1.066;2023-07-20T06:50:09;4.75;;;2.83;;
35558;SDS011;21661;50.794;-1.066;2023-07-20T06:52:35;4.50;;;2.85;;
35558;SDS011;21661;50.794;-1.066;2023-07-20T06:55:02;6.85;;;2.78;;
35558;SDS011;21661;50.794;-1.066;2023-07-20T06:57:28;5.40;;;2.75;;
35558;SDS011;21661;50.794;-1.066;2023-07-20T06:59:54;8.00;;;2.90;;
35558;SDS011;21661;50.794;-1.066;2023-07-20T07:02:19;6.50;;;2.80;;
35558;SDS011;21661;50.794;-1.066;2023-07-20T07:04:45;5.57;;;2.80;;
35558;SDS011;21661;50.794;-1.066;2023-07-20T07:07:13;5.05;;;2.72;;
35558;SDS011;21661;50.794;-1.066;2023-07-20T07:09:39;4.65;;;2.63;;
35558;SDS011;21661;50.794;-1.066;2023-07-20T07:12:05;4.43;;;2.60;;
35558;SDS011;21661;50.794;-1.066;2023-07-20T07:14:31;3.92;;;2.50;;
35558;SDS011;21661;50.794;-1.066;2023-07-20T07:16:57;6.60;;;2.55;;
35558;SDS011;21661;50.794;-1.066;2023-07-20T07:19:23;5.25;;;2.85;;
35558;SDS011;21661;50.794;-1.066;2023-07-20T07:21:48;5.20;;;2.60;;
35558;SDS011;21661;50.794;-1.066;2023-07-20T07:24:14;4.72;;;2.78;;
35558;SDS011;21661;50.794;-1.066;2023-07-20T07:26:39;7.68;;;2.60;;
35558;SDS011;21661;50.794;-1.066;2023-07-20T07:29:05;6.95;;;2.55;;
35558;SDS011;21661;50.794;-1.066;2023-07-20T07:31:33;7.35;;;2.47;;
35558;SDS011;21661;50.794;-1.066;2023-07-20T07:34:00;7.68;;;3.45;;
35558;SDS011;21661;50.794;-1.066;2023-07-20T07:36:26;5.53;;;3.25;;
35558;SDS011;21661;50.794;-1.066;2023-07-20T07:38:52;4.60;;;3.22;;
35558;SDS011;21661;50.794;-1.066;2023-07-20T07:41:17;4.85;;;2.50;;
35558;SDS011;21661;50.794;-1.066;2023-07-20T07:43:43;5.57;;;3.30;;
35558;SDS011;21661;50.794;-1.066;2023-07-20T07:46:08;5.97;;;2.90;;
35558;SDS011;21661;50.794;-1.066;2023-07-20T07:48:34;5.72;;;2.50;;
35558;SDS011;21661;50.794;-1.066;2023-07-20T07:51:00;4.82;;;2.60;;
35558;SDS011;21661;50.794;-1.066;2023-07-20T07:53:25;5.15;;;2.47;;
35558;SDS011;21661;50.794;-1.066;2023-07-20T07:55:51;6.65;;;2.30;;
35558;SDS011;21661;50.794;-1.066;2023-07-20T07:58:17;5.28;;;2.40;;
35558;SDS011;21661;50.794;-1.066;2023-07-20T08:00:44;4.97;;;2.50;;
35558;SDS011;21661;50.794;-1.066;2023-07-20T08:03:09;4.57;;;2.42;;
35558;SDS011;21661;50.794;-1.066;2023-07-20T08:05:35;3.97;;;2.30;;
35558;SDS011;21661;50.794;-1.066;2023-07-20T08:08:01;4.80;;;2.35;;
35558;SDS011;21661;50.794;-1.066;2023-07-20T08:10:28;9.80;;;2.53;;
35558;SDS011;21661;50.794;-1.066;2023-07-20T08:12:55;4.43;;;2.35;;
35558;SDS011;21661;50.794;-1.066;2023-07-20T08:15:20;6.82;;;2.13;;
35558;SDS011;21661;50.794;-1.066;2023-07-20T08:17:46;5.57;;;2.67;;
35558;SDS011;21661;50.794;-1.066;2023-07-20T08:20:13;6.15;;;2.83;;
35558;SDS011;21661;50.794;-1.066;2023-07-20T08:22:41;5.65;;;2.45;;
35558;SDS011;21661;50.794;-1.066;2023-07-20T08:25:07;7.97;;;2.80;;
35558;SDS011;21661;50.794;-1.066;2023-07-20T08:27:34;4.78;;;2.50;;
35558;SDS011;21661;50.794;-1.066;2023-07-20T08:30:00;5.18;;;2.33;;
35558;SDS011;21661;50.794;-1.066;2023-07-20T08:32:25;8.45;;;2.80;;
35558;SDS011;21661;50.794;-1.066;2023-07-20T08:34:51;5.57;;;2.53;;
35558;SDS011;21661;50.794;-1.066;2023-07-20T08:37:17;6.10;;;2.30;;
35558;SDS011;21661;50.794;-1.066;2023-07-20T08:39:43;6.53;;;2.35;;
35558;SDS011;21661;50.794;-1.066;2023-07-20T08:42:09;4.18;;;2.30;;
35558;SDS011;21661;50.794;-1.066;2023-07-20T08:44:35;5.07;;;2.65;;
35558;SDS011;21661;50.794;-1.066;2023-07-20T08:47:03;5.80;;;2.95;;
35558;SDS011;21661;50.794;-1.066;2023-07-20T08:49:33;3.72;;;2.28;;
35558;SDS011;21661;50.794;-1.066;2023-07-20T08:52:00;3.92;;;2.38;;
35558;SDS011;21661;50.794;-1.066;2023-07-20T08:54:27;4.68;;;2.15;;
35558;SDS011;21661;50.794;-1.066;2023-07-20T08:56:57;4.63;;;2.20;;
35558;SDS011;21661;50.794;-1.066;2023-07-20T08:59:26;3.45;;;1.58;;
35558;SDS011;21661;50.794;-1.066;2023-07-20T09:01:55;6.25;;;2.28;;
35558;SDS011;21661;50.794;-1.066;2023-07-20T09:04:22;3.70;;;1.92;;
35558;SDS011;21661;50.794;-1.066;2023-07-20T09:06:48;3.67;;;2.10;;
35558;SDS011;21661;50.794;-1.066;2023-07-20T09:09:15;5.13;;;2.13;;
35558;SDS011;21661;50.794;-1.066;2023-07-20T09:11:41;5.10;;;2.15;;
35558;SDS011;21661;50.794;-1.066;2023-07-20T09:14:07;3.83;;;1.85;;
35558;SDS011;21661;50.794;-1.066;2023-07-20T09:16:51;3.00;;;1.50;;
35558;SDS011;21661;50.794;-1.066;2023-07-20T09:19:18;3.08;;;1.58;;
35558;SDS011;21661;50.794;-1.066;2023-07-20T09:21:51;3.97;;;2.08;;
35558;SDS011;21661;50.794;-1.066;2023-07-20T09:24:17;3.70;;;2.20;;
35558;SDS011;21661;50.794;-1.066;2023-07-20T09:26:44;4.63;;;1.88;;
35558;SDS011;21661;50.794;-1.066;2023-07-20T09:29:13;2.85;;;1.58;;
35558;SDS011;21661;50.794;-1.066;2023-07-20T09:31:39;3.20;;;1.77;;
35558;SDS011;21661;50.794;-1.066;2023-07-20T09:34:05;3.53;;;1.85;;
35558;SDS011;21661;50.794;-1.066;2023-07-20T09:36:35;4.10;;;1.80;;
35558;SDS011;21661;50.794;-1.066;2023-07-20T09:39:02;4.80;;;2.08;;
35558;SDS011;21661;50.794;-1.066;2023-07-20T09:41:29;4.00;;;2.10;;
35558;SDS011;21661;50.794;-1.066;2023-07-20T09:43:54;5.32;;;2.38;;
35558;SDS011;21661;50.794;-1.066;2023-07-20T09:46:20;4.22;;;2.05;;
35558;SDS011;21661;50.794;-1.066;2023-07-20T09:48:52;5.20;;;2.10;;
35558;SDS011;21661;50.794;-1.066;2023-07-20T09:51:20;3.35;;;2.03;;
35558;SDS011;21661;50.794;-1.066;2023-07-20T09:53:48;6.03;;;2.00;;
35558;SDS011;21661;50.794;-1.066;2023-07-20T09:56:15;4.32;;;1.88;;
35558;SDS011;21661;50.794;-1.066;2023-07-20T09:58:43;5.25;;;2.13;;
35558;SDS011;21661;50.794;-1.066;2023-07-20T10:01:10;4.57;;;2.10;;
35558;SDS011;21661;50.794;-1.066;2023-07-20T10:03:39;3.08;;;1.63;;
35558;SDS011;21661;50.794;-1.066;2023-07-20T10:06:08;4.13;;;2.00;;
35558;SDS011;21661;50.794;-1.066;2023-07-20T10:08:41;3.42;;;2.03;;
35558;SDS011;21661;50.794;-1.066;2023-07-20T10:11:08;6.43;;;2.00;;
35558;SDS011;21661;50.794;-1.066;2023-07-20T10:13:37;2.97;;;1.50;;
35558;SDS011;21661;50.794;-1.066;2023-07-20T10:16:09;4.10;;;1.90;;
35558;SDS011;21661;50.794;-1.066;2023-07-20T10:21:23;4.47;;;2.00;;
35558;SDS011;21661;50.794;-1.066;2023-07-20T10:23:49;3.75;;;1.83;;
35558;SDS011;21661;50.794;-1.066;2023-07-20T10:26:15;4.57;;;1.80;;
35558;SDS011;21661;50.794;-1.066;2023-07-20T10:28:41;2.33;;;1.60;;
35558;SDS011;21661;50.794;-1.066;2023-07-20T10:31:10;4.28;;;1.65;;
35558;SDS011;21661;50.794;-1.066;2023-07-20T10:36:04;3.45;;;1.60;;
35558;SDS011;21661;50.794;-1.066;2023-07-20T10:38:51;4.05;;;1.60;;
35558;SDS011;21661;50.794;-1.066;2023-07-20T10:43:46;2.25;;;1.20;;
35558;SDS011;21661;50.794;-1.066;2023-07-20T10:46:13;2.58;;;1.55;;
35558;SDS011;21661;50.794;-1.066;2023-07-20T10:56:41;2.00;;;1.20;;
35558;SDS011;21661;50.794;-1.066;2023-07-20T10:59:36;2.08;;;1.17;;
35558;SDS011;21661;50.794;-1.066;2023-07-20T11:02:05;3.30;;;1.00;;
35558;SDS011;21661;50.794;-1.066;2023-07-20T11:04:38;5.50;;;1.23;;
35558;SDS011;21661;50.794;-1.066;2023-07-20T11:07:05;5.32;;;1.17;;
35558;SDS011;21661;50.794;-1.066;2023-07-20T11:09:35;1.40;;;1.00;;
35558;SDS011;21661;50.794;-1.066;2023-07-20T11:12:11;3.47;;;1.10;;
35558;SDS011;21661;50.794;-1.066;2023-07-20T11:14:42;2.05;;;1.10;;
35558;SDS011;21661;50.794;-1.066;2023-07-20T11:17:15;3.53;;;1.45;;
35558;SDS011;21661;50.794;-1.066;2023-07-20T11:19:47;3.80;;;1.40;;
35558;SDS011;21661;50.794;-1.066;2023-07-20T11:22:13;2.65;;;1.38;;
35558;SDS011;21661;50.794;-1.066;2023-07-20T11:24:42;3.60;;;1.70;;
35558;SDS011;21661;50.794;-1.066;2023-07-20T11:27:08;2.70;;;1.55;;
35558;SDS011;21661;50.794;-1.066;2023-07-20T11:29:34;1.90;;;1.30;;
35558;SDS011;21661;50.794;-1.066;2023-07-20T11:32:01;2.15;;;1.23;;
35558;SDS011;21661;50.794;-1.066;2023-07-20T11:34:29;3.10;;;1.80;;
35558;SDS011;21661;50.794;-1.066;2023-07-20T11:36:56;3.30;;;1.55;;
35558;SDS011;21661;50.794;-1.066;2023-07-20T11:39:22;3.60;;;1.20;;
35558;SDS011;21661;50.794;-1.066;2023-07-20T11:41:50;2.08;;;1.30;;
35558;SDS011;21661;50.794;-1.066;2023-07-20T11:44:21;2.38;;;1.30;;
35558;SDS011;21661;50.794;-1.066;2023-07-20T11:47:12;1.90;;;1.08;;
35558;SDS011;21661;50.794;-1.066;2023-07-20T11:49:39;2.72;;;1.10;;
35558;SDS011;21661;50.794;-1.066;2023-07-20T11:52:06;2.28;;;1.00;;
35558;SDS011;21661;50.794;-1.066;2023-07-20T11:54:37;2.88;;;1.20;;
35558;SDS011;21661;50.794;-1.066;2023-07-20T11:57:04;2.70;;;1.27;;
35558;SDS011;21661;50.794;-1.066;2023-07-20T11:59:33;2.20;;;1.00;;
35558;SDS011;21661;50.794;-1.066;2023-07-20T12:02:01;2.47;;;1.25;;
35558;SDS011;21661;50.794;-1.066;2023-07-20T12:04:28;1.90;;;1.15;;
35558;SDS011;21661;50.794;-1.066;2023-07-20T12:06:53;2.53;;;1.23;;
35558;SDS011;21661;50.794;-1.066;2023-07-20T12:09:20;2.00;;;1.40;;
35558;SDS011;21661;50.794;-1.066;2023-07-20T12:11:48;2.78;;;1.60;;
35558;SDS011;21661;50.794;-1.066;2023-07-20T12:14:15;4.35;;;1.60;;
35558;SDS011;21661;50.794;-1.066;2023-07-20T12:16:41;3.42;;;2.05;;
35558;SDS011;21661;50.794;-1.066;2023-07-20T12:19:07;3.00;;;1.92;;
35558;SDS011;21661;50.794;-1.066;2023-07-20T12:21:35;3.42;;;1.70;;
35558;SDS011;21661;50.794;-1.066;2023-07-20T12:24:02;2.90;;;1.80;;
35558;SDS011;21661;50.794;-1.066;2023-07-20T12:26:30;3.80;;;2.03;;
35558;SDS011;21661;50.794;-1.066;2023-07-20T12:28:57;3.15;;;2.20;;
35558;SDS011;21661;50.794;-1.066;2023-07-20T12:31:23;3.92;;;2.05;;
35558;SDS011;21661;50.794;-1.066;2023-07-20T12:33:49;2.42;;;1.67;;
35558;SDS011;21661;50.794;-1.066;2023-07-20T12:36:15;4.50;;;2.50;;
35558;SDS011;21661;50.794;-1.066;2023-07-20T12:38:41;2.95;;;1.80;;
35558;SDS011;21661;50.794;-1.066;2023-07-20T12:41:07;4.32;;;1.75;;
35558;SDS011;21661;50.794;-1.066;2023-07-20T12:43:34;2.80;;;1.90;;
35558;SDS011;21661;50.794;-1.066;2023-07-20T12:46:00;3.80;;;1.80;;
35558;SDS011;21661;50.794;-1.066;2023-07-20T12:48:26;2.38;;;1.85;;
35558;SDS011;21661;50.794;-1.066;2023-07-20T12:50:51;2.30;;;1.60;;
35558;SDS011;21661;50.794;-1.066;2023-07-20T12:53:17;1.90;;;1.70;;
35558;SDS011;21661;50.794;-1.066;2023-07-20T12:55:43;3.72;;;1.58;;
35558;SDS011;21661;50.794;-1.066;2023-07-20T12:58:08;4.18;;;1.90;;
35558;SDS011;21661;50.794;-1.066;2023-07-20T13:00:35;3.75;;;2.50;;
35558;SDS011;21661;50.794;-1.066;2023-07-20T13:03:01;3.85;;;2.28;;
35558;SDS011;21661;50.794;-1.066;2023-07-20T13:05:30;4.70;;;1.98;;
35558;SDS011;21661;50.794;-1.066;2023-07-20T13:07:56;2.90;;;2.05;;
35558;SDS011;21661;50.794;-1.066;2023-07-20T13:10:23;2.00;;;1.33;;
35558;SDS011;21661;50.794;-1.066;2023-07-20T13:12:49;2.38;;;1.38;;
35558;SDS011;21661;50.794;-1.066;2023-07-20T13:15:15;3.28;;;1.30;;
35558;SDS011;21661;50.794;-1.066;2023-07-20T13:17:41;3.22;;;1.50;;
35558;SDS011;21661;50.794;-1.066;2023-07-20T13:20:07;2.40;;;1.50;;
35558;SDS011;21661;50.794;-1.066;2023-07-20T13:22:35;6.55;;;1.60;;
35558;SDS011;21661;50.794;-1.066;2023-07-20T13:25:04;4.32;;;1.90;;
35558;SDS011;21661;50.794;-1.066;2023-07-20T13:27:31;2.70;;;1.40;;
35558;SDS011;21661;50.794;-1.066;2023-07-20T13:29:57;2.50;;;1.38;;
35558;SDS011;21661;50.794;-1.066;2023-07-20T13:32:23;2.67;;;1.40;;
35558;SDS011;21661;50.794;-1.066;2023-07-20T13:34:49;2.42;;;1.38;;
35558;SDS011;21661;50.794;-1.066;2023-07-20T13:37:15;2.15;;;1.40;;
35558;SDS011;21661;50.794;-1.066;2023-07-20T13:39:41;3.35;;;1.70;;
35558;SDS011;21661;50.794;-1.066;2023-07-20T13:42:06;2.95;;;1.10;;
35558;SDS011;21661;50.794;-1.066;2023-07-20T13:44:35;2.88;;;1.30;;
35558;SDS011;21661;50.794;-1.066;2023-07-20T13:47:02;2.03;;;1.20;;
35558;SDS011;21661;50.794;-1.066;2023-07-20T13:49:30;2.30;;;1.33;;
35558;SDS011;21661;50.794;-1.066;2023-07-20T13:51:56;1.75;;;1.25;;
35558;SDS011;21661;50.794;-1.066;2023-07-20T13:54:22;4.38;;;1.50;;
35558;SDS011;21661;50.794;-1.066;2023-07-20T13:56:48;3.47;;;1.60;;
35558;SDS011;21661;50.794;-1.066;2023-07-20T13:59:14;3.17;;;1.50;;
35558;SDS011;21661;50.794;-1.066;2023-07-20T14:01:39;2.22;;;1.42;;
35558;SDS011;21661;50.794;-1.066;2023-07-20T14:04:05;3.92;;;1.48;;
35558;SDS011;21661;50.794;-1.066;2023-07-20T14:06:31;5.53;;;1.60;;
35558;SDS011;21661;50.794;-1.066;2023-07-20T14:08:57;2.50;;;1.42;;
35558;SDS011;21661;50.794;-1.066;2023-07-20T14:11:23;4.28;;;1.65;;
35558;SDS011;21661;50.794;-1.066;2023-07-20T14:13:49;4.55;;;1.70;;
35558;SDS011;21661;50.794;-1.066;2023-07-20T14:16:18;2.20;;;1.50;;
35558;SDS011;21661;50.794;-1.066;2023-07-20T14:18:47;2.83;;;1.70;;
35558;SDS011;21661;50.794;-1.066;2023-07-20T14:21:17;3.28;;;1.65;;
35558;SDS011;21661;50.794;-1.066;2023-07-20T14:23:47;4.82;;;1.58;;
35558;SDS011;21661;50.794;-1.066;2023-07-20T14:28:40;2.63;;;1.73;;
35558;SDS011;21661;50.794;-1.066;2023-07-20T14:31:06;6.32;;;1.52;;
35558;SDS011;21661;50.794;-1.066;2023-07-20T14:33:32;3.08;;;1.60;;
35558;SDS011;21661;50.794;-1.066;2023-07-20T14:35:57;5.15;;;1.85;;
35558;SDS011;21661;50.794;-1.066;2023-07-20T14:38:23;2.47;;;1.48;;
35558;SDS011;21661;50.794;-1.066;2023-07-20T14:40:49;2.45;;;1.50;;
35558;SDS011;21661;50.794;-1.066;2023-07-20T14:43:15;2.85;;;1.75;;
35558;SDS011;21661;50.794;-1.066;2023-07-20T14:45:41;3.05;;;1.60;;
35558;SDS011;21661;50.794;-1.066;2023-07-20T14:48:07;3.50;;;1.70;;
35558;SDS011;21661;50.794;-1.066;2023-07-20T14:50:33;3.53;;;1.98;;
35558;SDS011;21661;50.794;-1.066;2023-07-20T14:52:59;2.40;;;1.88;;
35558;SDS011;21661;50.794;-1.066;2023-07-20T14:55:25;1.98;;;1.40;;
35558;SDS011;21661;50.794;-1.066;2023-07-20T14:57:50;2.70;;;1.70;;